sensor_id;sensor_type;location;lat;lon;timestamp;temperature;humidity
72202;SHT30;60105;54.956;73.412;2022-11-09T00:01:02;-0.46;69.89
72202;SHT30;60105;54.956;73.412;2022-11-09T00:03:34;-0.46;69.89
72202;SHT30;60105;54.956;73.412;2022-11-09T00:06:00;-0.42;70.15
72202;SHT30;60105;54.956;73.412;2022-11-09T00:08:29;-0.42;70.33
72202;SHT30;60105;54.956;73.412;2022-11-09T00:11:06;-0.45;70.42
72202;SHT30;60105;54.956;73.412;2022-11-09T00:13:41;-0.48;70.97
72202;SHT30;60105;54.956;73.412;2022-11-09T00:16:10;-0.43;70.59
72202;SHT30;60105;54.956;73.412;2022-11-09T00:18:37;-0.43;70.89
72202;SHT30;60105;54.956;73.412;2022-11-09T00:21:21;-0.43;71.06
72202;SHT30;60105;54.956;73.412;2022-11-09T00:23:48;-0.42;71.13
72202;SHT30;60105;54.956;73.412;2022-11-09T00:26:16;-0.43;71.15
72202;SHT30;60105;54.956;73.412;2022-11-09T00:28:42;-0.45;71.43
72202;SHT30;60105;54.956;73.412;2022-11-09T00:31:12;-0.45;71.35
72202;SHT30;60105;54.956;73.412;2022-11-09T00:33:55;-0.49;71.43
72202;SHT30;60105;54.956;73.412;2022-11-09T00:36:23;-0.50;71.60
72202;SHT30;60105;54.956;73.412;2022-11-09T00:38:52;-0.48;71.80
72202;SHT30;60105;54.956;73.412;2022-11-09T00:41:19;-0.48;72.10
72202;SHT30;60105;54.956;73.412;2022-11-09T00:43:46;-0.46;72.14
72202;SHT30;60105;54.956;73.412;2022-11-09T00:46:12;-0.46;72.39
72202;SHT30;60105;54.956;73.412;2022-11-09T00:48:39;-0.50;72.42
72202;SHT30;60105;54.956;73.412;2022-11-09T00:51:05;-0.49;72.36
72202;SHT30;60105;54.956;73.412;2022-11-09T00:53:41;-0.50;72.73
72202;SHT30;60105;54.956;73.412;2022-11-09T00:56:11;-0.50;72.69
72202;SHT30;60105;54.956;73.412;2022-11-09T00:58:39;-0.48;72.32
72202;SHT30;60105;54.956;73.412;2022-11-09T01:01:14;-0.48;72.55
72202;SHT30;60105;54.956;73.412;2022-11-09T01:03:42;-0.48;72.93
72202;SHT30;60105;54.956;73.412;2022-11-09T01:06:18;-0.49;73.08
72202;SHT30;60105;54.956;73.412;2022-11-09T01:08:45;-0.48;73.25
72202;SHT30;60105;54.956;73.412;2022-11-09T01:11:15;-0.53;72.79
72202;SHT30;60105;54.956;73.412;2022-11-09T01:13:42;-0.50;73.10
72202;SHT30;60105;54.956;73.412;2022-11-09T01:16:15;-0.53;73.28
72202;SHT30;60105;54.956;73.412;2022-11-09T01:18:42;-0.50;73.05
72202;SHT30;60105;54.956;73.412;2022-11-09T01:21:10;-0.49;73.14
72202;SHT30;60105;54.956;73.412;2022-11-09T01:23:41;-0.49;73.21
72202;SHT30;60105;54.956;73.412;2022-11-09T01:26:10;-0.45;73.06
72202;SHT30;60105;54.956;73.412;2022-11-09T01:28:37;-0.45;72.87
72202;SHT30;60105;54.956;73.412;2022-11-09T01:31:11;-0.48;73.17
72202;SHT30;60105;54.956;73.412;2022-11-09T01:33:38;-0.48;73.30
72202;SHT30;60105;54.956;73.412;2022-11-09T01:36:09;-0.46;73.65
72202;SHT30;60105;54.956;73.412;2022-11-09T01:38:36;-0.48;73.28
72202;SHT30;60105;54.956;73.412;2022-11-09T01:41:07;-0.49;73.60
72202;SHT30;60105;54.956;73.412;2022-11-09T01:43:34;-0.52;73.50
72202;SHT30;60105;54.956;73.412;2022-11-09T01:46:22;-0.50;73.62
72202;SHT30;60105;54.956;73.412;2022-11-09T01:48:56;-0.50;73.70
72202;SHT30;60105;54.956;73.412;2022-11-09T01:51:46;-0.48;73.20
72202;SHT30;60105;54.956;73.412;2022-11-09T01:54:22;-0.49;73.52
72202;SHT30;60105;54.956;73.412;2022-11-09T01:56:51;-0.45;73.19
72202;SHT30;60105;54.956;73.412;2022-11-09T01:59:22;-0.46;73.22
72202;SHT30;60105;54.956;73.412;2022-11-09T02:01:54;-0.45;73.31
72202;SHT30;60105;54.956;73.412;2022-11-09T02:04:29;-0.40;72.93
72202;SHT30;60105;54.956;73.412;2022-11-09T02:06:57;-0.36;73.14
72202;SHT30;60105;54.956;73.412;2022-11-09T02:09:44;-0.42;73.04
72202;SHT30;60105;54.956;73.412;2022-11-09T02:12:11;-0.42;73.49
72202;SHT30;60105;54.956;73.412;2022-11-09T02:14:39;-0.45;73.24
72202;SHT30;60105;54.956;73.412;2022-11-09T02:17:06;-0.49;73.38
72202;SHT30;60105;54.956;73.412;2022-11-09T02:19:33;-0.46;73.33
72202;SHT30;60105;54.956;73.412;2022-11-09T02:22:10;-0.42;73.26
72202;SHT30;60105;54.956;73.412;2022-11-09T02:24:36;-0.39;73.39
72202;SHT30;60105;54.956;73.412;2022-11-09T02:27:05;-0.32;72.81
72202;SHT30;60105;54.956;73.412;2022-11-09T02:29:35;-0.36;73.11
72202;SHT30;60105;54.956;73.412;2022-11-09T02:32:28;-0.40;72.94
72202;SHT30;60105;54.956;73.412;2022-11-09T02:34:57;-0.45;73.15
72202;SHT30;60105;54.956;73.412;2022-11-09T02:37:46;-0.45;73.27
72202;SHT30;60105;54.956;73.412;2022-11-09T02:40:31;-0.45;73.67
72202;SHT30;60105;54.956;73.412;2022-11-09T02:43:01;-0.36;73.20
72202;SHT30;60105;54.956;73.412;2022-11-09T02:45:38;-0.33;73.02
72202;SHT30;60105;54.956;73.412;2022-11-09T02:48:11;-0.30;72.96
72202;SHT30;60105;54.956;73.412;2022-11-09T02:50:37;-0.23;73.16
72202;SHT30;60105;54.956;73.412;2022-11-09T02:53:04;-0.23;72.81
72202;SHT30;60105;54.956;73.412;2022-11-09T02:55:39;-0.19;72.26
72202;SHT30;60105;54.956;73.412;2022-11-09T02:58:06;-0.21;72.29
72202;SHT30;60105;54.956;73.412;2022-11-09T03:00:34;-0.18;72.36
72202;SHT30;60105;54.956;73.412;2022-11-09T03:03:00;-0.21;72.42
72202;SHT30;60105;54.956;73.412;2022-11-09T03:05:26;-0.25;72.67
72202;SHT30;60105;54.956;73.412;2022-11-09T03:08:03;-0.23;72.63
72202;SHT30;60105;54.956;73.412;2022-11-09T03:10:37;-0.22;72.56
72202;SHT30;60105;54.956;73.412;2022-11-09T03:13:05;-0.25;72.44
72202;SHT30;60105;54.956;73.412;2022-11-09T03:15:37;-0.21;72.81
72202;SHT30;60105;54.956;73.412;2022-11-09T03:18:16;-0.19;72.38
72202;SHT30;60105;54.956;73.412;2022-11-09T03:20:42;-0.16;72.47
72202;SHT30;60105;54.956;73.412;2022-11-09T03:23:08;-0.18;72.01
72202;SHT30;60105;54.956;73.412;2022-11-09T03:25:36;-0.16;71.95
72202;SHT30;60105;54.956;73.412;2022-11-09T03:28:05;-0.12;71.56
72202;SHT30;60105;54.956;73.412;2022-11-09T03:30:32;-0.16;71.63
72202;SHT30;60105;54.956;73.412;2022-11-09T03:33:09;-0.06;71.41
72202;SHT30;60105;54.956;73.412;2022-11-09T03:35:38;0.06;70.78
72202;SHT30;60105;54.956;73.412;2022-11-09T03:38:06;0.20;70.34
72202;SHT30;60105;54.956;73.412;2022-11-09T03:40:33;0.27;70.49
72202;SHT30;60105;54.956;73.412;2022-11-09T03:42:59;0.39;69.88
72202;SHT30;60105;54.956;73.412;2022-11-09T03:45:33;0.39;69.63
72202;SHT30;60105;54.956;73.412;2022-11-09T03:48:09;0.39;69.92
72202;SHT30;60105;54.956;73.412;2022-11-09T03:50:36;0.44;69.27
72202;SHT30;60105;54.956;73.412;2022-11-09T03:53:06;0.52;69.29
72202;SHT30;60105;54.956;73.412;2022-11-09T03:55:34;0.53;68.94
72202;SHT30;60105;54.956;73.412;2022-11-09T03:58:02;0.56;68.53
72202;SHT30;60105;54.956;73.412;2022-11-09T04:00:28;0.60;69.46
72202;SHT30;60105;54.956;73.412;2022-11-09T04:02:55;0.71;68.35
72202;SHT30;60105;54.956;73.412;2022-11-09T04:05:21;0.78;67.90
72202;SHT30;60105;54.956;73.412;2022-11-09T04:07:50;0.83;67.70
72202;SHT30;60105;54.956;73.412;2022-11-09T04:10:17;0.83;67.39
72202;SHT30;60105;54.956;73.412;2022-11-09T04:12:44;0.92;67.52
72202;SHT30;60105;54.956;73.412;2022-11-09T04:15:11;0.98;67.26
72202;SHT30;60105;54.956;73.412;2022-11-09T04:17:37;1.04;67.22
72202;SHT30;60105;54.956;73.412;2022-11-09T04:20:05;1.11;66.58
72202;SHT30;60105;54.956;73.412;2022-11-09T04:22:38;1.09;67.01
72202;SHT30;60105;54.956;73.412;2022-11-09T04:25:05;1.18;66.43
72202;SHT30;60105;54.956;73.412;2022-11-09T04:27:31;1.11;66.69
72202;SHT30;60105;54.956;73.412;2022-11-09T04:29:57;1.19;67.00
72202;SHT30;60105;54.956;73.412;2022-11-09T04:32:23;1.31;66.76
72202;SHT30;60105;54.956;73.412;2022-11-09T04:34:49;1.28;66.51
72202;SHT30;60105;54.956;73.412;2022-11-09T04:37:15;1.28;66.59
72202;SHT30;60105;54.956;73.412;2022-11-09T04:39:42;1.25;66.60
72202;SHT30;60105;54.956;73.412;2022-11-09T04:42:19;1.26;67.01
72202;SHT30;60105;54.956;73.412;2022-11-09T04:44:45;1.33;66.81
72202;SHT30;60105;54.956;73.412;2022-11-09T04:47:12;1.40;66.73
72202;SHT30;60105;54.956;73.412;2022-11-09T04:49:38;1.45;66.63
72202;SHT30;60105;54.956;73.412;2022-11-09T04:52:04;1.53;66.18
72202;SHT30;60105;54.956;73.412;2022-11-09T04:54:35;1.54;66.31
72202;SHT30;60105;54.956;73.412;2022-11-09T04:57:01;1.57;66.34
72202;SHT30;60105;54.956;73.412;2022-11-09T04:59:28;1.66;66.32
72202;SHT30;60105;54.956;73.412;2022-11-09T05:01:59;1.68;65.64
72202;SHT30;60105;54.956;73.412;2022-11-09T05:04:25;1.68;65.79
72202;SHT30;60105;54.956;73.412;2022-11-09T05:07:00;1.78;65.92
72202;SHT30;60105;54.956;73.412;2022-11-09T05:09:26;1.85;65.69
72202;SHT30;60105;54.956;73.412;2022-11-09T05:11:53;1.88;65.38
72202;SHT30;60105;54.956;73.412;2022-11-09T05:14:28;1.95;65.27
72202;SHT30;60105;54.956;73.412;2022-11-09T05:16:55;1.94;65.13
72202;SHT30;60105;54.956;73.412;2022-11-09T05:19:21;2.00;65.56
72202;SHT30;60105;54.956;73.412;2022-11-09T05:21:47;2.05;65.42
72202;SHT30;60105;54.956;73.412;2022-11-09T05:24:13;2.08;65.06
72202;SHT30;60105;54.956;73.412;2022-11-09T05:26:40;2.10;65.39
72202;SHT30;60105;54.956;73.412;2022-11-09T05:29:09;2.18;65.11
72202;SHT30;60105;54.956;73.412;2022-11-09T05:31:41;2.22;64.58
72202;SHT30;60105;54.956;73.412;2022-11-09T05:34:11;2.17;65.08
72202;SHT30;60105;54.956;73.412;2022-11-09T05:36:38;2.21;65.07
72202;SHT30;60105;54.956;73.412;2022-11-09T05:39:13;2.32;65.07
72202;SHT30;60105;54.956;73.412;2022-11-09T05:41:40;2.41;64.47
72202;SHT30;60105;54.956;73.412;2022-11-09T05:44:15;2.42;64.68
72202;SHT30;60105;54.956;73.412;2022-11-09T05:46:42;2.48;64.71
72202;SHT30;60105;54.956;73.412;2022-11-09T05:49:10;2.49;64.82
72202;SHT30;60105;54.956;73.412;2022-11-09T05:51:36;2.62;64.52
72202;SHT30;60105;54.956;73.412;2022-11-09T05:54:03;2.60;64.23
72202;SHT30;60105;54.956;73.412;2022-11-09T05:56:29;2.64;64.41
72202;SHT30;60105;54.956;73.412;2022-11-09T05:58:55;2.77;64.38
72202;SHT30;60105;54.956;73.412;2022-11-09T06:01:22;2.64;64.48
72202;SHT30;60105;54.956;73.412;2022-11-09T06:03:48;2.64;64.96
72202;SHT30;60105;54.956;73.412;2022-11-09T06:06:16;2.73;65.31
72202;SHT30;60105;54.956;73.412;2022-11-09T06:08:52;2.77;65.38
72202;SHT30;60105;54.956;73.412;2022-11-09T06:11:19;2.69;65.43
72202;SHT30;60105;54.956;73.412;2022-11-09T06:13:45;2.72;65.84
72202;SHT30;60105;54.956;73.412;2022-11-09T06:16:11;2.73;66.21
72202;SHT30;60105;54.956;73.412;2022-11-09T06:18:37;2.64;66.34
72202;SHT30;60105;54.956;73.412;2022-11-09T06:21:04;2.63;66.66
72202;SHT30;60105;54.956;73.412;2022-11-09T06:23:31;2.66;66.39
72202;SHT30;60105;54.956;73.412;2022-11-09T06:26:03;2.42;66.89
72202;SHT30;60105;54.956;73.412;2022-11-09T06:28:31;2.49;66.99
72202;SHT30;60105;54.956;73.412;2022-11-09T06:31:13;2.49;66.86
72202;SHT30;60105;54.956;73.412;2022-11-09T06:33:40;2.43;67.31
72202;SHT30;60105;54.956;73.412;2022-11-09T06:36:06;2.60;67.32
72202;SHT30;60105;54.956;73.412;2022-11-09T06:38:34;2.60;67.32
72202;SHT30;60105;54.956;73.412;2022-11-09T06:41:00;2.63;67.25
72202;SHT30;60105;54.956;73.412;2022-11-09T06:43:36;2.66;66.91
72202;SHT30;60105;54.956;73.412;2022-11-09T06:46:03;2.62;67.28
72202;SHT30;60105;54.956;73.412;2022-11-09T06:48:30;2.64;67.19
72202;SHT30;60105;54.956;73.412;2022-11-09T06:51:00;2.69;67.31
72202;SHT30;60105;54.956;73.412;2022-11-09T06:53:27;2.75;67.61
72202;SHT30;60105;54.956;73.412;2022-11-09T06:55:59;2.67;67.40
72202;SHT30;60105;54.956;73.412;2022-11-09T06:58:26;2.76;67.26
72202;SHT30;60105;54.956;73.412;2022-11-09T07:00:53;2.84;67.41
72202;SHT30;60105;54.956;73.412;2022-11-09T07:03:20;3.03;67.13
72202;SHT30;60105;54.956;73.412;2022-11-09T07:05:48;3.04;67.08
72202;SHT30;60105;54.956;73.412;2022-11-09T07:08:16;3.11;67.52
72202;SHT30;60105;54.956;73.412;2022-11-09T07:10:42;3.22;67.76
72202;SHT30;60105;54.956;73.412;2022-11-09T07:13:10;3.15;67.68
72202;SHT30;60105;54.956;73.412;2022-11-09T07:15:37;3.15;67.72
72202;SHT30;60105;54.956;73.412;2022-11-09T07:18:06;3.22;67.57
72202;SHT30;60105;54.956;73.412;2022-11-09T07:20:33;3.14;67.77
72202;SHT30;60105;54.956;73.412;2022-11-09T07:22:59;3.10;68.16
72202;SHT30;60105;54.956;73.412;2022-11-09T07:25:25;2.94;68.37
72202;SHT30;60105;54.956;73.412;2022-11-09T07:27:52;2.93;68.70
72202;SHT30;60105;54.956;73.412;2022-11-09T07:30:18;2.93;68.86
72202;SHT30;60105;54.956;73.412;2022-11-09T07:32:45;2.97;69.29
72202;SHT30;60105;54.956;73.412;2022-11-09T07:35:11;2.99;69.37
72202;SHT30;60105;54.956;73.412;2022-11-09T07:37:37;3.14;68.80
72202;SHT30;60105;54.956;73.412;2022-11-09T07:40:04;3.14;68.47
72202;SHT30;60105;54.956;73.412;2022-11-09T07:42:30;3.13;68.33
72202;SHT30;60105;54.956;73.412;2022-11-09T07:44:56;3.18;68.14
72202;SHT30;60105;54.956;73.412;2022-11-09T07:47:23;3.27;68.22
72202;SHT30;60105;54.956;73.412;2022-11-09T07:49:49;3.28;67.94
72202;SHT30;60105;54.956;73.412;2022-11-09T07:52:15;3.27;67.67
72202;SHT30;60105;54.956;73.412;2022-11-09T07:54:41;3.35;67.55
72202;SHT30;60105;54.956;73.412;2022-11-09T07:57:16;3.24;67.90
72202;SHT30;60105;54.956;73.412;2022-11-09T07:59:43;3.22;68.13
72202;SHT30;60105;54.956;73.412;2022-11-09T08:02:09;3.27;67.86
72202;SHT30;60105;54.956;73.412;2022-11-09T08:04:35;3.32;68.10
72202;SHT30;60105;54.956;73.412;2022-11-09T08:07:02;3.21;68.02
72202;SHT30;60105;54.956;73.412;2022-11-09T08:09:28;3.08;68.87
72202;SHT30;60105;54.956;73.412;2022-11-09T08:11:54;3.01;68.69
72202;SHT30;60105;54.956;73.412;2022-11-09T08:14:20;2.99;69.19
72202;SHT30;60105;54.956;73.412;2022-11-09T08:16:52;2.94;69.28
72202;SHT30;60105;54.956;73.412;2022-11-09T08:19:18;3.00;69.51
72202;SHT30;60105;54.956;73.412;2022-11-09T08:21:47;3.04;69.13
72202;SHT30;60105;54.956;73.412;2022-11-09T08:24:14;3.07;68.83
72202;SHT30;60105;54.956;73.412;2022-11-09T08:26:40;3.18;68.73
72202;SHT30;60105;54.956;73.412;2022-11-09T08:29:06;3.20;68.22
72202;SHT30;60105;54.956;73.412;2022-11-09T08:31:32;3.30;68.53
72202;SHT30;60105;54.956;73.412;2022-11-09T08:33:59;3.35;68.35
72202;SHT30;60105;54.956;73.412;2022-11-09T08:36:25;3.50;67.79
72202;SHT30;60105;54.956;73.412;2022-11-09T08:38:58;3.18;68.81
72202;SHT30;60105;54.956;73.412;2022-11-09T08:41:25;3.10;68.97
72202;SHT30;60105;54.956;73.412;2022-11-09T08:43:51;3.11;69.05
72202;SHT30;60105;54.956;73.412;2022-11-09T08:46:17;3.14;69.05
72202;SHT30;60105;54.956;73.412;2022-11-09T08:48:54;3.11;68.93
72202;SHT30;60105;54.956;73.412;2022-11-09T08:51:20;3.05;69.06
72202;SHT30;60105;54.956;73.412;2022-11-09T08:53:46;2.99;69.46
72202;SHT30;60105;54.956;73.412;2022-11-09T08:56:12;2.94;69.67
72202;SHT30;60105;54.956;73.412;2022-11-09T08:58:44;3.04;69.48
72202;SHT30;60105;54.956;73.412;2022-11-09T09:01:10;3.01;69.45
72202;SHT30;60105;54.956;73.412;2022-11-09T09:03:47;2.96;69.69
72202;SHT30;60105;54.956;73.412;2022-11-09T09:06:13;2.97;70.08
72202;SHT30;60105;54.956;73.412;2022-11-09T09:08:39;2.97;70.33
72202;SHT30;60105;54.956;73.412;2022-11-09T09:11:14;2.96;70.34
72202;SHT30;60105;54.956;73.412;2022-11-09T09:13:41;3.03;70.37
72202;SHT30;60105;54.956;73.412;2022-11-09T09:16:12;3.14;69.81
72202;SHT30;60105;54.956;73.412;2022-11-09T09:18:49;3.22;69.75
72202;SHT30;60105;54.956;73.412;2022-11-09T09:21:15;3.28;69.33
72202;SHT30;60105;54.956;73.412;2022-11-09T09:23:53;3.24;69.52
72202;SHT30;60105;54.956;73.412;2022-11-09T09:26:19;3.17;69.70
72202;SHT30;60105;54.956;73.412;2022-11-09T09:28:45;3.22;69.35
72202;SHT30;60105;54.956;73.412;2022-11-09T09:31:12;3.17;69.67
72202;SHT30;60105;54.956;73.412;2022-11-09T09:33:38;3.18;69.35
72202;SHT30;60105;54.956;73.412;2022-11-09T09:36:05;3.20;69.83
72202;SHT30;60105;54.956;73.412;2022-11-09T09:38:32;3.01;70.04
72202;SHT30;60105;54.956;73.412;2022-11-09T09:41:03;3.03;70.47
72202;SHT30;60105;54.956;73.412;2022-11-09T09:43:39;3.04;70.16
72202;SHT30;60105;54.956;73.412;2022-11-09T09:46:29;3.01;70.60
72202;SHT30;60105;54.956;73.412;2022-11-09T09:49:22;3.01;70.68
72202;SHT30;60105;54.956;73.412;2022-11-09T09:54:59;3.07;70.49
72202;SHT30;60105;54.956;73.412;2022-11-09T09:57:27;2.92;70.86
72202;SHT30;60105;54.956;73.412;2022-11-09T09:59:58;2.86;71.59
72202;SHT30;60105;54.956;73.412;2022-11-09T10:02:32;2.93;71.26
72202;SHT30;60105;54.956;73.412;2022-11-09T10:05:08;3.01;71.29
72202;SHT30;60105;54.956;73.412;2022-11-09T10:10:38;3.00;71.22
72202;SHT30;60105;54.956;73.412;2022-11-09T10:13:19;3.01;71.50
72202;SHT30;60105;54.956;73.412;2022-11-09T10:15:54;3.15;71.05
72202;SHT30;60105;54.956;73.412;2022-11-09T10:29:58;3.14;71.40
72202;SHT30;60105;54.956;73.412;2022-11-09T10:32:29;3.14;71.53
72202;SHT30;60105;54.956;73.412;2022-11-09T10:35:21;3.13;71.49
72202;SHT30;60105;54.956;73.412;2022-11-09T10:37:50;3.18;71.56
72202;SHT30;60105;54.956;73.412;2022-11-09T10:40:37;3.21;71.20
72202;SHT30;60105;54.956;73.412;2022-11-09T10:43:34;3.13;71.38
72202;SHT30;60105;54.956;73.412;2022-11-09T10:46:28;3.10;71.69
72202;SHT30;60105;54.956;73.412;2022-11-09T10:49:22;3.05;72.14
72202;SHT30;60105;54.956;73.412;2022-11-09T10:52:30;3.10;71.92
72202;SHT30;60105;54.956;73.412;2022-11-09T10:55:27;3.10;72.01
72202;SHT30;60105;54.956;73.412;2022-11-09T11:04:17;2.99;72.90
72202;SHT30;60105;54.956;73.412;2022-11-09T11:07:18;3.03;72.54
72202;SHT30;60105;54.956;73.412;2022-11-09T11:15:49;2.97;72.74
72202;SHT30;60105;54.956;73.412;2022-11-09T11:18:35;2.89;73.24
72202;SHT30;60105;54.956;73.412;2022-11-09T11:21:22;2.86;73.24
72202;SHT30;60105;54.956;73.412;2022-11-09T11:24:17;2.83;73.27
72202;SHT30;60105;54.956;73.412;2022-11-09T11:27:05;2.89;73.20
72202;SHT30;60105;54.956;73.412;2022-11-09T11:30:13;2.99;72.69
72202;SHT30;60105;54.956;73.412;2022-11-09T11:32:58;3.05;72.68
72202;SHT30;60105;54.956;73.412;2022-11-09T11:39:01;2.96;72.69
72202;SHT30;60105;54.956;73.412;2022-11-09T11:42:29;2.75;73.09
72202;SHT30;60105;54.956;73.412;2022-11-09T11:45:38;2.76;73.13
72202;SHT30;60105;54.956;73.412;2022-11-09T12:01:32;3.00;72.44
72202;SHT30;60105;54.956;73.412;2022-11-09T12:16:52;2.94;72.44
72202;SHT30;60105;54.956;73.412;2022-11-09T12:23:38;2.89;72.85
72202;SHT30;60105;54.956;73.412;2022-11-09T12:29:21;2.82;73.00
72202;SHT30;60105;54.956;73.412;2022-11-09T12:35:39;2.69;73.25
72202;SHT30;60105;54.956;73.412;2022-11-09T12:38:38;2.62;73.35
72202;SHT30;60105;54.956;73.412;2022-11-09T12:41:36;2.67;73.24
72202;SHT30;60105;54.956;73.412;2022-11-09T12:44:26;2.70;72.57
72202;SHT30;60105;54.956;73.412;2022-11-09T12:47:16;2.76;72.00
72202;SHT30;60105;54.956;73.412;2022-11-09T12:50:03;2.82;71.74
72202;SHT30;60105;54.956;73.412;2022-11-09T12:52:48;2.80;71.98
72202;SHT30;60105;54.956;73.412;2022-11-09T12:55:48;2.82;72.30
72202;SHT30;60105;54.956;73.412;2022-11-09T12:58:36;2.84;72.57
72202;SHT30;60105;54.956;73.412;2022-11-09T13:04:21;2.76;72.64
72202;SHT30;60105;54.956;73.412;2022-11-09T13:10:01;2.70;72.55
72202;SHT30;60105;54.956;73.412;2022-11-09T13:12:46;2.75;71.99
72202;SHT30;60105;54.956;73.412;2022-11-09T13:15:32;2.76;71.78
72202;SHT30;60105;54.956;73.412;2022-11-09T13:33:28;2.52;71.44
72202;SHT30;60105;54.956;73.412;2022-11-09T13:36:15;2.59;71.14
72202;SHT30;60105;54.956;73.412;2022-11-09T13:39:29;2.43;71.70
72202;SHT30;60105;54.956;73.412;2022-11-09T13:42:30;2.49;71.05
72202;SHT30;60105;54.956;73.412;2022-11-09T13:45:34;2.45;70.71
72202;SHT30;60105;54.956;73.412;2022-11-09T13:48:58;2.52;70.76
72202;SHT30;60105;54.956;73.412;2022-11-09T13:51:46;2.53;70.73
72202;SHT30;60105;54.956;73.412;2022-11-09T13:54:41;2.62;70.52
72202;SHT30;60105;54.956;73.412;2022-11-09T13:57:27;2.75;70.26
72202;SHT30;60105;54.956;73.412;2022-11-09T14:00:21;2.64;70.44
72202;SHT30;60105;54.956;73.412;2022-11-09T14:03:20;2.66;70.29
72202;SHT30;60105;54.956;73.412;2022-11-09T14:06:11;2.67;70.09
72202;SHT30;60105;54.956;73.412;2022-11-09T14:08:57;2.60;70.35
72202;SHT30;60105;54.956;73.412;2022-11-09T14:12:11;2.59;70.77
72202;SHT30;60105;54.956;73.412;2022-11-09T14:18:14;2.60;70.95
72202;SHT30;60105;54.956;73.412;2022-11-09T14:24:30;2.57;71.10
72202;SHT30;60105;54.956;73.412;2022-11-09T14:27:20;2.52;71.63
72202;SHT30;60105;54.956;73.412;2022-11-09T14:33:29;2.57;71.78
72202;SHT30;60105;54.956;73.412;2022-11-09T14:36:18;2.55;71.94
72202;SHT30;60105;54.956;73.412;2022-11-09T14:39:05;2.53;71.91
72202;SHT30;60105;54.956;73.412;2022-11-09T14:41:58;2.52;71.99
72202;SHT30;60105;54.956;73.412;2022-11-09T14:44:44;2.48;72.14
72202;SHT30;60105;54.956;73.412;2022-11-09T14:47:36;2.42;72.68
72202;SHT30;60105;54.956;73.412;2022-11-09T14:50:30;2.45;72.64
72202;SHT30;60105;54.956;73.412;2022-11-09T14:53:19;2.26;73.35
72202;SHT30;60105;54.956;73.412;2022-11-09T14:56:11;2.29;73.36
72202;SHT30;60105;54.956;73.412;2022-11-09T14:58:57;2.31;73.30
72202;SHT30;60105;54.956;73.412;2022-11-09T15:02:04;2.45;73.04
72202;SHT30;60105;54.956;73.412;2022-11-09T15:05:03;2.31;73.30
72202;SHT30;60105;54.956;73.412;2022-11-09T15:07:48;2.31;73.39
72202;SHT30;60105;54.956;73.412;2022-11-09T15:10:33;2.26;73.26
72202;SHT30;60105;54.956;73.412;2022-11-09T15:13:26;2.33;73.48
72202;SHT30;60105;54.956;73.412;2022-11-09T15:16:25;2.42;72.74
72202;SHT30;60105;54.956;73.412;2022-11-09T15:19:33;2.46;72.77
72202;SHT30;60105;54.956;73.412;2022-11-09T15:22:41;2.49;72.71
72202;SHT30;60105;54.956;73.412;2022-11-09T15:28:20;2.45;72.64
72202;SHT30;60105;54.956;73.412;2022-11-09T15:31:13;2.56;72.18
72202;SHT30;60105;54.956;73.412;2022-11-09T15:33:59;2.55;72.06
72202;SHT30;60105;54.956;73.412;2022-11-09T15:36:53;2.56;72.35
72202;SHT30;60105;54.956;73.412;2022-11-09T15:39:44;2.52;72.51
72202;SHT30;60105;54.956;73.412;2022-11-09T15:42:29;2.62;72.27
72202;SHT30;60105;54.956;73.412;2022-11-09T15:45:16;2.57;72.23
72202;SHT30;60105;54.956;73.412;2022-11-09T15:48:11;2.57;71.93
72202;SHT30;60105;54.956;73.412;2022-11-09T15:50:56;2.45;72.41
72202;SHT30;60105;54.956;73.412;2022-11-09T15:53:51;2.43;72.68
72202;SHT30;60105;54.956;73.412;2022-11-09T15:56:41;2.52;72.34
72202;SHT30;60105;54.956;73.412;2022-11-09T15:59:26;2.55;72.14
72202;SHT30;60105;54.956;73.412;2022-11-09T16:02:11;2.49;72.19
72202;SHT30;60105;54.956;73.412;2022-11-09T16:04:55;2.49;72.10
72202;SHT30;60105;54.956;73.412;2022-11-09T16:07:53;2.53;72.05
72202;SHT30;60105;54.956;73.412;2022-11-09T16:10:41;2.50;72.49
72202;SHT30;60105;54.956;73.412;2022-11-09T16:13:27;2.48;72.53
72202;SHT30;60105;54.956;73.412;2022-11-09T16:16:18;2.52;72.22
72202;SHT30;60105;54.956;73.412;2022-11-09T16:19:03;2.46;72.38
72202;SHT30;60105;54.956;73.412;2022-11-09T16:21:47;2.35;72.50
72202;SHT30;60105;54.956;73.412;2022-11-09T16:24:34;2.31;72.94
72202;SHT30;60105;54.956;73.412;2022-11-09T16:27:20;2.36;72.63
72202;SHT30;60105;54.956;73.412;2022-11-09T16:30:07;2.48;72.34
72202;SHT30;60105;54.956;73.412;2022-11-09T16:32:52;2.36;72.39
72202;SHT30;60105;54.956;73.412;2022-11-09T16:35:37;2.32;72.34
72202;SHT30;60105;54.956;73.412;2022-11-09T16:38:42;2.28;72.93
72202;SHT30;60105;54.956;73.412;2022-11-09T16:41:29;2.35;72.54
72202;SHT30;60105;54.956;73.412;2022-11-09T16:44:17;2.35;71.76
72202;SHT30;60105;54.956;73.412;2022-11-09T16:47:05;2.33;72.12
72202;SHT30;60105;54.956;73.412;2022-11-09T16:49:50;2.29;72.36
72202;SHT30;60105;54.956;73.412;2022-11-09T16:52:35;2.32;72.00
72202;SHT30;60105;54.956;73.412;2022-11-09T16:55:30;2.33;71.41
72202;SHT30;60105;54.956;73.412;2022-11-09T16:58:14;2.32;71.94
72202;SHT30;60105;54.956;73.412;2022-11-09T17:00:59;2.38;71.54
72202;SHT30;60105;54.956;73.412;2022-11-09T17:03:44;2.48;71.36
72202;SHT30;60105;54.956;73.412;2022-11-09T17:06:34;2.43;71.43
72202;SHT30;60105;54.956;73.412;2022-11-09T17:09:19;2.28;71.52
72202;SHT30;60105;54.956;73.412;2022-11-09T17:12:04;2.29;71.59
72202;SHT30;60105;54.956;73.412;2022-11-09T17:14:49;2.39;71.58
72202;SHT30;60105;54.956;73.412;2022-11-09T17:17:33;2.45;71.30
72202;SHT30;60105;54.956;73.412;2022-11-09T17:20:18;2.42;70.94
72202;SHT30;60105;54.956;73.412;2022-11-09T17:23:03;2.46;71.15
72202;SHT30;60105;54.956;73.412;2022-11-09T17:25:59;2.45;71.03
72202;SHT30;60105;54.956;73.412;2022-11-09T17:28:44;2.38;71.01
72202;SHT30;60105;54.956;73.412;2022-11-09T17:31:30;2.41;70.88
72202;SHT30;60105;54.956;73.412;2022-11-09T17:34:15;2.42;70.68
72202;SHT30;60105;54.956;73.412;2022-11-09T17:37:00;2.26;71.37
72202;SHT30;60105;54.956;73.412;2022-11-09T17:39:44;2.38;71.00
72202;SHT30;60105;54.956;73.412;2022-11-09T17:42:29;2.38;70.88
72202;SHT30;60105;54.956;73.412;2022-11-09T17:45:24;2.32;70.77
72202;SHT30;60105;54.956;73.412;2022-11-09T17:48:19;2.31;70.81
72202;SHT30;60105;54.956;73.412;2022-11-09T17:51:04;2.38;70.39
72202;SHT30;60105;54.956;73.412;2022-11-09T17:53:54;2.32;71.26
72202;SHT30;60105;54.956;73.412;2022-11-09T17:56:39;2.35;70.66
72202;SHT30;60105;54.956;73.412;2022-11-09T17:59:34;2.28;70.89
72202;SHT30;60105;54.956;73.412;2022-11-09T18:02:28;2.26;71.37
72202;SHT30;60105;54.956;73.412;2022-11-09T18:05:13;2.33;70.83
72202;SHT30;60105;54.956;73.412;2022-11-09T18:07:59;2.25;71.33
72202;SHT30;60105;54.956;73.412;2022-11-09T18:10:49;2.26;71.19